createdAt,value
2018-03-07T00:01:09.420Z,997.52
2018-03-07T00:02:36.364Z,997.52
2018-03-07T00:04:03.632Z,997.50
2018-03-07T00:05:30.799Z,997.51
2018-03-07T00:06:57.946Z,997.51
2018-03-07T00:08:25.042Z,997.52
2018-03-07T00:09:52.663Z,997.52
2018-03-07T00:11:19.841Z,997.51
2018-03-07T00:12:46.954Z,997.51
2018-03-07T00:14:14.118Z,997.50
2018-03-07T00:15:41.168Z,997.49
2018-03-07T00:17:08.350Z,997.50
2018-03-07T00:18:35.352Z,997.50
2018-03-07T00:20:02.359Z,997.49
2018-03-07T00:21:29.389Z,997.51
2018-03-07T00:22:56.535Z,997.51
2018-03-07T00:24:23.698Z,997.49
2018-03-07T00:25:50.901Z,997.51
2018-03-07T00:27:17.994Z,997.50
2018-03-07T00:28:45.066Z,997.50
2018-03-07T00:30:12.336Z,997.48
2018-03-07T00:31:39.351Z,997.50
2018-03-07T00:33:06.012Z,997.49
2018-03-07T00:34:33.254Z,997.49
2018-03-07T00:36:00.278Z,997.48
2018-03-07T00:37:27.453Z,997.47
2018-03-07T00:38:54.477Z,997.48
2018-03-07T00:40:21.400Z,997.47
2018-03-07T00:41:48.551Z,997.48
2018-03-07T00:43:15.839Z,997.46
2018-03-07T00:44:43.034Z,997.46
2018-03-07T00:46:10.251Z,997.46
2018-03-07T00:47:37.356Z,997.45
2018-03-07T00:49:04.463Z,997.45
2018-03-07T00:50:31.654Z,997.40
2018-03-07T00:51:58.882Z,997.40
2018-03-07T00:53:25.962Z,997.38
2018-03-07T00:54:53.022Z,997.38
2018-03-07T00:56:20.288Z,997.38
2018-03-07T00:57:47.355Z,997.40
2018-03-07T00:59:14.565Z,997.38
2018-03-07T01:00:41.663Z,997.38
2018-03-07T01:02:08.896Z,997.41
2018-03-07T01:03:35.978Z,997.41
2018-03-07T01:05:03.086Z,997.41
2018-03-07T01:06:30.222Z,997.40
2018-03-07T01:07:57.409Z,997.39
2018-03-07T01:09:24.699Z,997.40
2018-03-07T01:10:51.820Z,997.42
2018-03-07T01:12:18.872Z,997.42
2018-03-07T01:13:45.972Z,997.44
2018-03-07T01:15:13.257Z,997.46
2018-03-07T01:16:40.384Z,997.47
2018-03-07T01:18:07.396Z,997.43
2018-03-07T01:19:34.827Z,997.46
2018-03-07T01:21:01.932Z,997.45
2018-03-07T01:22:28.974Z,997.45
2018-03-07T01:23:55.962Z,997.45
2018-03-07T01:25:23.153Z,997.47
2018-03-07T01:26:50.246Z,997.47
2018-03-07T01:28:17.376Z,997.47
2018-03-07T01:29:44.713Z,997.47
2018-03-07T01:31:11.913Z,997.45
2018-03-07T01:32:38.987Z,997.42
2018-03-07T01:34:06.012Z,997.40
2018-03-07T01:35:33.227Z,997.41
2018-03-07T01:37:00.405Z,997.38
2018-03-07T01:38:27.593Z,997.35
2018-03-07T01:39:54.498Z,997.35
2018-03-07T01:41:21.709Z,997.30
2018-03-07T01:42:49.042Z,997.31
2018-03-07T01:44:15.918Z,997.30
2018-03-07T01:45:43.110Z,997.30
2018-03-07T01:47:10.115Z,997.29
2018-03-07T01:48:37.172Z,997.27
2018-03-07T01:50:04.266Z,997.25
2018-03-07T01:51:31.414Z,997.26
2018-03-07T01:52:58.507Z,997.25
2018-03-07T01:54:25.721Z,997.25
2018-03-07T01:55:52.928Z,997.24
2018-03-07T01:57:20.202Z,997.23
2018-03-07T01:58:47.431Z,997.24
2018-03-07T02:00:14.691Z,997.24
2018-03-07T02:01:41.852Z,997.27
2018-03-07T02:03:08.953Z,997.26
2018-03-07T02:04:36.089Z,997.27
2018-03-07T02:06:03.345Z,997.27
2018-03-07T02:07:30.591Z,997.24
2018-03-07T02:08:57.751Z,997.21
2018-03-07T02:11:51.964Z,997.18
2018-03-07T02:13:19.099Z,997.17
2018-03-07T02:14:46.285Z,997.15
2018-03-07T02:16:13.331Z,997.13
2018-03-07T02:17:40.494Z,997.10
2018-03-07T02:19:07.527Z,997.08
2018-03-07T02:20:34.922Z,997.06
2018-03-07T02:22:02.057Z,997.04
2018-03-07T02:23:29.162Z,997.04
2018-03-07T02:24:56.373Z,997.03
2018-03-07T02:26:23.424Z,997.02
2018-03-07T02:27:50.671Z,997.04
2018-03-07T02:29:17.887Z,997.03
2018-03-07T02:30:45.118Z,997.01
2018-03-07T02:32:12.233Z,997.04
2018-03-07T02:33:39.393Z,997.01
2018-03-07T02:35:06.495Z,997.01
2018-03-07T02:36:33.514Z,996.99
2018-03-07T02:38:00.722Z,996.98
2018-03-07T02:39:27.971Z,996.96
2018-03-07T02:40:55.129Z,996.95
2018-03-07T02:42:22.258Z,996.95
2018-03-07T02:43:49.338Z,996.97
2018-03-07T02:45:16.682Z,996.95
2018-03-07T02:46:43.724Z,996.95
2018-03-07T02:48:10.974Z,996.94
2018-03-07T02:49:38.118Z,996.95
2018-03-07T02:51:05.047Z,996.95
2018-03-07T02:52:32.271Z,996.93
2018-03-07T02:53:59.405Z,996.92
2018-03-07T02:55:26.634Z,996.92
2018-03-07T02:56:53.885Z,996.90
2018-03-07T02:58:21.100Z,996.90
2018-03-07T02:59:48.281Z,996.89
2018-03-07T03:01:15.216Z,996.88
2018-03-07T03:02:42.306Z,996.88
2018-03-07T03:04:09.446Z,996.90
2018-03-07T03:05:36.406Z,996.89
2018-03-07T03:07:03.671Z,996.88
2018-03-07T03:08:30.906Z,996.83
2018-03-07T03:09:58.134Z,996.80
2018-03-07T03:11:25.159Z,996.84
2018-03-07T03:12:52.348Z,996.84
2018-03-07T03:14:19.439Z,996.81
2018-03-07T03:15:46.704Z,996.82
2018-03-07T03:17:13.636Z,996.82
2018-03-07T03:18:40.850Z,996.80
2018-03-07T03:20:07.864Z,996.80
2018-03-07T03:21:34.852Z,996.82
2018-03-07T03:23:01.653Z,996.82
2018-03-07T03:24:28.630Z,996.84
2018-03-07T03:25:54.918Z,996.82
2018-03-07T03:27:22.069Z,996.84
2018-03-07T03:28:49.256Z,996.84
2018-03-07T03:30:16.388Z,996.86
2018-03-07T03:31:43.339Z,996.85
2018-03-07T03:33:10.553Z,996.85
2018-03-07T03:34:37.618Z,996.84
2018-03-07T03:36:05.234Z,996.85
2018-03-07T03:37:31.621Z,996.85
2018-03-07T03:38:58.796Z,996.87
2018-03-07T03:40:26.117Z,996.88
2018-03-07T03:41:53.334Z,996.90
2018-03-07T03:43:20.441Z,996.93
2018-03-07T03:44:47.691Z,996.91
2018-03-07T03:46:14.812Z,996.92
2018-03-07T03:47:41.976Z,996.93
2018-03-07T03:49:08.954Z,996.94
2018-03-07T03:50:35.954Z,996.93
2018-03-07T03:52:03.064Z,996.93
2018-03-07T03:53:30.139Z,996.93
2018-03-07T03:54:56.891Z,996.89
2018-03-07T03:56:23.975Z,996.89
2018-03-07T03:57:51.028Z,996.89
2018-03-07T03:59:17.980Z,996.91
2018-03-07T04:00:45.164Z,996.90
2018-03-07T04:02:12.204Z,996.91
2018-03-07T04:03:39.382Z,996.88
2018-03-07T04:05:06.374Z,996.95
2018-03-07T04:06:33.366Z,996.94
2018-03-07T04:08:00.483Z,996.97
2018-03-07T04:09:27.624Z,996.96
2018-03-07T04:12:21.813Z,996.99
2018-03-07T04:13:48.996Z,996.99
2018-03-07T04:15:15.925Z,996.97
2018-03-07T04:16:43.098Z,996.97
2018-03-07T04:18:10.222Z,996.96
2018-03-07T04:19:37.326Z,996.97
2018-03-07T04:21:04.437Z,996.98
2018-03-07T04:22:31.649Z,996.99
2018-03-07T04:23:58.857Z,996.97
2018-03-07T04:25:25.984Z,996.97
2018-03-07T04:26:53.034Z,996.96
2018-03-07T04:28:20.252Z,996.96
2018-03-07T04:29:47.325Z,996.93
2018-03-07T04:31:14.547Z,996.95
2018-03-07T04:32:41.588Z,996.95
2018-03-07T04:34:08.345Z,996.95
2018-03-07T04:35:35.286Z,996.93
2018-03-07T04:37:02.525Z,996.92
2018-03-07T04:38:29.761Z,996.93
2018-03-07T04:39:56.776Z,996.92
2018-03-07T04:41:23.778Z,996.90
2018-03-07T04:42:50.988Z,996.89
2018-03-07T04:44:18.048Z,996.89
2018-03-07T04:45:45.271Z,996.89
2018-03-07T04:47:12.349Z,996.89
2018-03-07T04:48:39.374Z,996.88
2018-03-07T04:50:06.453Z,996.88
2018-03-07T04:51:33.599Z,996.87
2018-03-07T04:53:00.419Z,996.86
2018-03-07T04:54:27.500Z,996.86
2018-03-07T04:55:54.892Z,996.83
2018-03-07T04:57:21.981Z,996.83
2018-03-07T04:58:48.936Z,996.81
2018-03-07T05:00:15.985Z,996.83
2018-03-07T05:01:42.976Z,996.78
2018-03-07T05:03:09.938Z,996.77
2018-03-07T05:04:37.048Z,996.75
2018-03-07T05:06:04.397Z,996.73
2018-03-07T05:07:31.012Z,996.72
2018-03-07T05:08:58.289Z,996.71
2018-03-07T05:10:25.508Z,996.68
2018-03-07T05:11:52.699Z,996.63
2018-03-07T05:13:19.768Z,996.60
2018-03-07T05:14:46.958Z,996.56
2018-03-07T05:16:14.121Z,996.57
2018-03-07T05:17:41.322Z,996.55
2018-03-07T05:19:08.474Z,996.55
2018-03-07T05:20:35.445Z,996.54
2018-03-07T05:22:02.500Z,996.57
2018-03-07T05:23:29.546Z,996.56
2018-03-07T05:24:56.627Z,996.58
2018-03-07T05:26:23.833Z,996.59
2018-03-07T05:27:51.137Z,996.59
2018-03-07T05:29:18.297Z,996.55
2018-03-07T05:30:45.447Z,996.59
2018-03-07T05:32:12.603Z,996.56
2018-03-07T05:33:39.635Z,996.54
2018-03-07T05:35:06.701Z,996.53
2018-03-07T05:36:33.766Z,996.50
2018-03-07T05:38:01.048Z,996.51
2018-03-07T05:39:28.320Z,996.49
2018-03-07T05:40:55.545Z,996.51
2018-03-07T05:42:22.714Z,996.48
2018-03-07T05:43:49.887Z,996.48
2018-03-07T05:45:16.955Z,996.46
2018-03-07T05:46:44.275Z,996.46
2018-03-07T05:48:11.181Z,996.44
2018-03-07T05:49:38.500Z,996.43
2018-03-07T05:51:05.265Z,996.46
2018-03-07T05:52:32.468Z,996.43
2018-03-07T05:53:59.543Z,996.44
2018-03-07T05:55:26.772Z,996.42
2018-03-07T05:56:54.058Z,996.42
2018-03-07T05:58:21.210Z,996.41
2018-03-07T05:59:48.207Z,996.44
2018-03-07T06:01:15.172Z,996.42
2018-03-07T06:02:42.356Z,996.44
2018-03-07T06:04:09.461Z,996.46
2018-03-07T06:05:36.520Z,996.42
2018-03-07T06:07:03.733Z,996.42
2018-03-07T06:08:31.061Z,996.41
2018-03-07T06:09:58.036Z,996.40
2018-03-07T06:11:25.106Z,996.40
2018-03-07T06:12:52.181Z,996.42
2018-03-07T06:14:19.367Z,996.40
2018-03-07T06:15:46.839Z,996.39
2018-03-07T06:17:13.947Z,996.38
2018-03-07T06:18:40.928Z,996.39
2018-03-07T06:20:08.095Z,996.40
2018-03-07T06:21:35.063Z,996.40
2018-03-07T06:23:02.221Z,996.42
2018-03-07T06:24:32.216Z,996.39
2018-03-07T06:25:56.438Z,996.38
2018-03-07T06:27:23.597Z,996.38
2018-03-07T06:28:50.819Z,996.40
2018-03-07T06:30:18.041Z,996.38
2018-03-07T06:31:45.298Z,996.41
2018-03-07T06:33:12.474Z,996.41
2018-03-07T06:34:39.481Z,996.44
2018-03-07T06:36:06.451Z,996.44
2018-03-07T06:37:33.595Z,996.45
2018-03-07T06:39:00.668Z,996.46
2018-03-07T06:40:27.755Z,996.47
2018-03-07T06:41:54.788Z,996.48
2018-03-07T06:43:21.842Z,996.47
2018-03-07T06:44:49.105Z,996.48
2018-03-07T06:46:16.209Z,996.47
2018-03-07T06:47:43.213Z,996.44
2018-03-07T06:49:10.247Z,996.46
2018-03-07T06:50:37.379Z,996.46
2018-03-07T06:52:04.588Z,996.48
2018-03-07T06:53:31.828Z,996.45
2018-03-07T06:54:59.034Z,996.49
2018-03-07T06:56:26.344Z,996.50
2018-03-07T06:57:53.470Z,996.49
2018-03-07T06:59:20.608Z,996.51
2018-03-07T07:00:47.930Z,996.49
2018-03-07T07:02:14.904Z,996.53
2018-03-07T07:03:41.938Z,996.54
2018-03-07T07:05:08.939Z,996.54
2018-03-07T07:06:36.094Z,996.55
2018-03-07T07:08:03.277Z,996.55
2018-03-07T07:09:30.320Z,996.56
2018-03-07T07:10:57.446Z,996.56
2018-03-07T07:12:24.531Z,996.59
2018-03-07T07:13:51.805Z,996.59
2018-03-07T07:15:18.216Z,996.61
2018-03-07T07:16:45.070Z,996.58
2018-03-07T07:18:12.199Z,996.60
2018-03-07T07:19:39.040Z,996.61
2018-03-07T07:21:06.088Z,996.58
2018-03-07T07:22:33.147Z,996.58
2018-03-07T07:24:00.094Z,996.59
2018-03-07T07:25:27.362Z,996.61
2018-03-07T07:26:54.491Z,996.59
2018-03-07T07:28:21.420Z,996.62
2018-03-07T07:29:48.654Z,996.59
2018-03-07T07:31:15.653Z,996.61
2018-03-07T07:32:42.815Z,996.63
2018-03-07T07:34:09.809Z,996.63
2018-03-07T07:35:36.965Z,996.63
2018-03-07T07:37:03.954Z,996.69
2018-03-07T07:38:31.105Z,996.70
2018-03-07T07:39:58.205Z,996.75
2018-03-07T07:41:25.247Z,996.75
2018-03-07T07:42:52.222Z,996.76
2018-03-07T07:44:19.395Z,996.78
2018-03-07T07:45:46.442Z,996.77
2018-03-07T07:47:13.610Z,996.77
2018-03-07T07:48:40.887Z,996.79
2018-03-07T07:50:07.924Z,996.80
2018-03-07T07:51:35.012Z,996.82
2018-03-07T07:53:02.240Z,996.82
2018-03-07T07:54:29.402Z,996.84
2018-03-07T07:55:56.527Z,996.83
2018-03-07T07:57:23.609Z,996.81
2018-03-07T07:58:50.772Z,996.82
2018-03-07T08:00:18.038Z,996.82
2018-03-07T08:01:45.204Z,996.81
2018-03-07T08:03:12.348Z,996.81
2018-03-07T08:04:39.480Z,996.79
2018-03-07T08:06:06.566Z,996.78
2018-03-07T08:07:33.659Z,996.81
2018-03-07T08:09:00.791Z,996.79
2018-03-07T08:10:27.596Z,996.79
2018-03-07T08:11:54.796Z,996.80
2018-03-07T08:13:21.905Z,996.78
2018-03-07T08:14:49.106Z,996.79
2018-03-07T08:16:16.256Z,996.79
2018-03-07T08:17:43.316Z,996.77
2018-03-07T08:19:10.467Z,996.78
2018-03-07T08:20:37.476Z,996.79
2018-03-07T08:22:04.589Z,996.83
2018-03-07T08:23:31.676Z,996.84
2018-03-07T08:24:58.883Z,996.83
2018-03-07T08:26:26.051Z,996.83
2018-03-07T08:27:53.124Z,996.84
2018-03-07T08:29:20.347Z,996.82
2018-03-07T08:30:47.674Z,996.84
2018-03-07T08:32:14.605Z,996.86
2018-03-07T08:33:41.801Z,996.88
2018-03-07T08:35:08.568Z,996.88
2018-03-07T08:36:35.588Z,996.90
2018-03-07T08:38:02.649Z,996.92
2018-03-07T08:39:29.913Z,996.92
2018-03-07T08:41:05.074Z,996.91
2018-03-07T08:42:24.311Z,996.93
2018-03-07T08:43:51.376Z,996.90
2018-03-07T08:45:18.487Z,996.89
2018-03-07T08:46:45.443Z,996.93
2018-03-07T08:48:12.559Z,996.93
2018-03-07T08:49:39.712Z,996.94
2018-03-07T08:51:06.951Z,996.94
2018-03-07T08:52:34.102Z,996.93
2018-03-07T08:54:01.156Z,996.95
2018-03-07T08:55:28.336Z,996.95
2018-03-07T08:56:55.259Z,996.96
2018-03-07T08:58:22.574Z,996.97
2018-03-07T08:59:49.618Z,996.97
2018-03-07T09:01:16.800Z,996.96
2018-03-07T09:02:44.093Z,996.97
2018-03-07T09:04:11.167Z,996.99
2018-03-07T09:05:38.338Z,996.98
2018-03-07T09:07:05.450Z,996.97
2018-03-07T09:08:32.670Z,996.97
2018-03-07T09:09:59.717Z,996.98
2018-03-07T09:11:26.927Z,996.97
2018-03-07T09:12:54.018Z,996.97
2018-03-07T09:14:21.130Z,996.98
2018-03-07T09:15:48.298Z,996.97
2018-03-07T09:17:15.490Z,996.96
2018-03-07T09:18:42.627Z,996.98
2018-03-07T09:20:09.754Z,996.96
2018-03-07T09:21:36.921Z,996.96
2018-03-07T09:23:04.128Z,996.93
2018-03-07T09:24:31.434Z,996.95
2018-03-07T09:25:58.577Z,996.95
2018-03-07T09:27:25.747Z,996.97
2018-03-07T09:28:52.967Z,996.97
2018-03-07T09:30:20.197Z,996.97
2018-03-07T09:31:47.336Z,996.99
2018-03-07T09:33:14.593Z,997.00
2018-03-07T09:34:41.596Z,996.99
2018-03-07T09:36:08.688Z,997.00
2018-03-07T09:37:35.659Z,997.00
2018-03-07T09:39:02.902Z,997.03
2018-03-07T09:40:30.030Z,997.05
2018-03-07T09:41:57.263Z,997.07
2018-03-07T09:43:24.468Z,997.06
2018-03-07T09:44:51.664Z,997.06
2018-03-07T09:46:18.807Z,997.09
2018-03-07T09:47:45.932Z,997.09
2018-03-07T09:49:13.125Z,997.10
2018-03-07T09:50:40.229Z,997.08
2018-03-07T09:52:07.466Z,997.11
2018-03-07T09:53:34.568Z,997.11
2018-03-07T09:55:01.675Z,997.11
2018-03-07T09:56:29.112Z,997.11
2018-03-07T09:57:56.230Z,997.13
2018-03-07T09:59:23.405Z,997.12
2018-03-07T10:00:50.667Z,997.13
2018-03-07T10:02:18.003Z,997.13
2018-03-07T10:03:45.127Z,997.12
2018-03-07T10:05:12.258Z,997.12
2018-03-07T10:06:39.352Z,997.13
2018-03-07T10:08:06.581Z,997.12
2018-03-07T10:09:33.718Z,997.14
2018-03-07T10:11:00.769Z,997.15
2018-03-07T10:12:27.952Z,997.14
2018-03-07T10:13:55.050Z,997.14
2018-03-07T10:15:22.230Z,997.16
2018-03-07T10:16:49.410Z,997.15
2018-03-07T10:18:16.463Z,997.16
2018-03-07T10:19:43.652Z,997.14
2018-03-07T10:21:10.723Z,997.13
2018-03-07T10:22:37.707Z,997.12
2018-03-07T10:24:05.052Z,997.14
2018-03-07T10:25:32.193Z,997.15
2018-03-07T10:26:59.440Z,997.16
2018-03-07T10:28:26.609Z,997.17
2018-03-07T10:29:53.800Z,997.15
2018-03-07T10:31:21.065Z,997.14
2018-03-07T10:32:48.111Z,997.15
2018-03-07T10:34:15.183Z,997.14
2018-03-07T10:35:42.310Z,997.14
2018-03-07T10:37:09.512Z,997.13
2018-03-07T10:38:36.611Z,997.14
2018-03-07T10:40:03.863Z,997.14
2018-03-07T10:41:31.008Z,997.10
2018-03-07T10:42:58.096Z,997.11
2018-03-07T10:44:25.484Z,997.11
2018-03-07T10:45:52.510Z,997.10
2018-03-07T10:47:19.535Z,997.09
2018-03-07T10:48:46.777Z,997.11
2018-03-07T10:50:14.031Z,997.11
2018-03-07T10:51:41.204Z,997.10
2018-03-07T10:53:08.326Z,997.13
2018-03-07T10:54:35.293Z,997.11
2018-03-07T10:56:02.574Z,997.15
2018-03-07T10:57:29.609Z,997.17
2018-03-07T10:58:56.799Z,997.19
2018-03-07T11:00:23.996Z,997.20
2018-03-07T11:01:51.143Z,997.19
2018-03-07T11:03:18.296Z,997.20
2018-03-07T11:04:45.633Z,997.21
2018-03-07T11:06:12.691Z,997.19
2018-03-07T11:07:39.812Z,997.19
2018-03-07T11:09:06.834Z,997.21
2018-03-07T11:10:34.151Z,997.21
2018-03-07T11:12:01.378Z,997.20
2018-03-07T11:13:28.694Z,997.21
2018-03-07T11:14:55.937Z,997.23
2018-03-07T11:16:23.027Z,997.23
2018-03-07T11:17:50.199Z,997.24
2018-03-07T11:19:17.376Z,997.25
2018-03-07T11:20:44.655Z,997.26
2018-03-07T11:22:11.848Z,997.27
2018-03-07T11:23:39.159Z,997.24
2018-03-07T11:25:06.174Z,997.25
2018-03-07T11:26:33.407Z,997.23
2018-03-07T11:28:00.619Z,997.21
2018-03-07T11:29:27.800Z,997.21
2018-03-07T11:30:54.949Z,997.18
2018-03-07T11:32:22.146Z,997.16
2018-03-07T11:33:49.401Z,997.18
2018-03-07T11:35:16.617Z,997.18
2018-03-07T11:36:43.655Z,997.17
2018-03-07T11:38:10.679Z,997.15
2018-03-07T11:39:37.697Z,997.16
2018-03-07T11:41:05.133Z,997.18
2018-03-07T11:42:32.256Z,997.17
2018-03-07T11:43:59.381Z,997.17
2018-03-07T11:45:26.627Z,997.19
2018-03-07T11:46:53.712Z,997.19
2018-03-07T11:48:20.904Z,997.18
2018-03-07T11:49:48.163Z,997.20
2018-03-07T11:51:15.288Z,997.18
2018-03-07T11:52:42.487Z,997.18
2018-03-07T11:54:09.529Z,997.17
2018-03-07T11:55:36.622Z,997.17
2018-03-07T11:57:03.817Z,997.17
2018-03-07T11:58:31.142Z,997.17
2018-03-07T11:59:58.287Z,997.18
2018-03-07T12:01:25.491Z,997.17
2018-03-07T12:02:52.715Z,997.20
2018-03-07T12:04:20.154Z,997.18
2018-03-07T12:05:47.251Z,997.17
2018-03-07T12:07:14.366Z,997.17
2018-03-07T12:08:41.575Z,997.19
2018-03-07T12:10:08.627Z,997.19
2018-03-07T12:11:35.614Z,997.18
2018-03-07T12:13:02.815Z,997.18
2018-03-07T12:14:29.985Z,997.17
2018-03-07T12:15:57.230Z,997.16
2018-03-07T12:17:24.467Z,997.17
2018-03-07T12:18:51.663Z,997.17
2018-03-07T12:20:18.906Z,997.16
2018-03-07T12:21:46.072Z,997.15
2018-03-07T12:23:13.018Z,997.16
2018-03-07T12:24:39.999Z,997.15
2018-03-07T12:26:07.245Z,997.13
2018-03-07T12:27:34.403Z,997.15
2018-03-07T12:29:01.564Z,997.14
2018-03-07T12:30:28.697Z,997.14
2018-03-07T12:31:55.944Z,997.12
2018-03-07T12:33:23.033Z,997.10
2018-03-07T12:34:50.218Z,997.11
2018-03-07T12:36:17.252Z,997.12
2018-03-07T12:37:44.273Z,997.13
2018-03-07T12:39:11.549Z,997.10
2018-03-07T12:40:38.580Z,997.09
2018-03-07T12:42:05.603Z,997.06
2018-03-07T12:43:32.809Z,997.04
2018-03-07T12:44:59.870Z,997.04
2018-03-07T12:46:27.277Z,997.03
2018-03-07T12:47:54.298Z,997.05
2018-03-07T12:49:21.497Z,997.05
2018-03-07T12:50:48.791Z,997.06
2018-03-07T12:52:15.689Z,997.05
2018-03-07T12:53:42.811Z,997.02
2018-03-07T12:55:09.877Z,997.04
2018-03-07T12:56:37.101Z,997.06
2018-03-07T12:58:04.426Z,997.04
2018-03-07T12:59:32.584Z,997.04
2018-03-07T13:00:58.570Z,997.05
2018-03-07T13:02:25.796Z,997.08
2018-03-07T13:03:52.955Z,997.06
2018-03-07T13:05:20.324Z,997.07
2018-03-07T13:06:47.421Z,997.05
2018-03-07T13:08:14.538Z,997.06
2018-03-07T13:09:41.510Z,997.06
2018-03-07T13:11:08.725Z,997.08
2018-03-07T13:12:35.838Z,997.09
2018-03-07T13:14:03.131Z,997.08
2018-03-07T13:15:30.381Z,997.10
2018-03-07T13:16:57.679Z,997.13
2018-03-07T13:18:24.780Z,997.13
2018-03-07T13:19:52.130Z,997.13
2018-03-07T13:21:19.400Z,997.14
2018-03-07T13:22:46.632Z,997.13
2018-03-07T13:24:13.894Z,997.13
2018-03-07T13:25:41.054Z,997.13
2018-03-07T13:27:08.148Z,997.13
2018-03-07T13:28:35.201Z,997.14
2018-03-07T13:30:02.266Z,997.13
2018-03-07T13:31:29.407Z,997.16
2018-03-07T13:32:56.760Z,997.18
2018-03-07T13:34:23.976Z,997.18
2018-03-07T13:35:51.139Z,997.19
2018-03-07T13:37:18.314Z,997.19
2018-03-07T13:38:45.377Z,997.21
2018-03-07T13:40:12.548Z,997.21
2018-03-07T13:41:39.767Z,997.24
2018-03-07T13:43:06.935Z,997.26
2018-03-07T13:44:33.870Z,997.26
2018-03-07T13:46:01.270Z,997.25
2018-03-07T13:47:28.205Z,997.25
2018-03-07T13:48:55.449Z,997.25
2018-03-07T13:50:22.723Z,997.25
2018-03-07T13:51:49.990Z,997.25
2018-03-07T13:53:17.214Z,997.24
2018-03-07T13:54:44.291Z,997.25
2018-03-07T13:56:11.929Z,997.26
2018-03-07T13:57:39.078Z,997.24
2018-03-07T13:59:06.158Z,997.26
2018-03-07T14:00:33.339Z,997.27
2018-03-07T14:02:00.475Z,997.29
2018-03-07T14:03:27.784Z,997.31
2018-03-07T14:04:54.875Z,997.34
2018-03-07T14:06:21.839Z,997.39
2018-03-07T14:07:49.034Z,997.39
2018-03-07T14:09:16.298Z,997.39
2018-03-07T14:10:43.606Z,997.40
2018-03-07T14:12:10.752Z,997.41
2018-03-07T14:13:38.038Z,997.41
2018-03-07T14:15:05.021Z,997.43
2018-03-07T14:16:32.306Z,997.43
2018-03-07T14:17:59.540Z,997.43
2018-03-07T14:19:26.705Z,997.45
2018-03-07T14:20:53.904Z,997.46
2018-03-07T14:22:21.207Z,997.47
2018-03-07T14:23:48.411Z,997.46
2018-03-07T14:25:15.565Z,997.47
2018-03-07T14:26:42.662Z,997.47
2018-03-07T14:28:09.975Z,997.47
2018-03-07T14:29:36.878Z,997.49
2018-03-07T14:31:03.986Z,997.49
2018-03-07T14:32:31.239Z,997.49
2018-03-07T14:33:58.427Z,997.50
2018-03-07T14:35:25.700Z,997.50
2018-03-07T14:36:52.932Z,997.50
2018-03-07T14:38:20.349Z,997.52
2018-03-07T14:39:47.575Z,997.52
2018-03-07T14:41:14.906Z,997.52
2018-03-07T14:42:42.152Z,997.52
2018-03-07T14:44:09.229Z,997.53
2018-03-07T14:45:36.421Z,997.51
2018-03-07T14:47:03.708Z,997.50
2018-03-07T14:48:30.922Z,997.52
2018-03-07T14:49:58.134Z,997.50
2018-03-07T14:51:25.392Z,997.52
2018-03-07T14:52:52.717Z,997.53
2018-03-07T14:54:19.995Z,997.52
2018-03-07T14:55:47.199Z,997.51
2018-03-07T14:57:14.415Z,997.51
2018-03-07T14:58:41.466Z,997.52
2018-03-07T15:00:08.669Z,997.51
2018-03-07T15:01:35.849Z,997.50
2018-03-07T15:03:03.106Z,997.51
2018-03-07T15:04:30.273Z,997.50
2018-03-07T15:05:57.411Z,997.49
2018-03-07T15:07:24.591Z,997.50
2018-03-07T15:08:51.715Z,997.52
2018-03-07T15:10:18.965Z,997.51
2018-03-07T15:11:46.218Z,997.52
2018-03-07T15:13:13.274Z,997.52
2018-03-07T15:14:40.522Z,997.51
2018-03-07T15:16:07.605Z,997.50
2018-03-07T15:17:34.664Z,997.49
2018-03-07T15:19:01.800Z,997.48
2018-03-07T15:20:28.421Z,997.45
2018-03-07T15:21:55.751Z,997.47
2018-03-07T15:23:23.016Z,997.50
2018-03-07T15:24:49.982Z,997.51
2018-03-07T15:26:17.368Z,997.51
2018-03-07T15:27:44.743Z,997.53
2018-03-07T15:29:11.836Z,997.56
2018-03-07T15:30:38.993Z,997.57
2018-03-07T15:32:06.044Z,997.58
2018-03-07T15:33:33.302Z,997.60
2018-03-07T15:35:00.569Z,997.59
2018-03-07T15:36:27.722Z,997.61
2018-03-07T15:37:54.911Z,997.62
2018-03-07T15:39:22.228Z,997.63
2018-03-07T15:40:49.043Z,997.68
2018-03-07T15:42:16.281Z,997.65
2018-03-07T15:43:43.579Z,997.67
2018-03-07T15:45:10.718Z,997.67
2018-03-07T15:46:37.880Z,997.67
2018-03-07T15:48:05.049Z,997.67
2018-03-07T15:49:32.209Z,997.66
2018-03-07T15:50:59.347Z,997.66
2018-03-07T15:52:26.718Z,997.67
2018-03-07T15:53:53.774Z,997.68
2018-03-07T15:55:20.860Z,997.68
2018-03-07T15:56:48.046Z,997.68
2018-03-07T15:58:15.300Z,997.70
2018-03-07T15:59:42.453Z,997.71
2018-03-07T16:01:09.708Z,997.73
2018-03-07T16:02:36.753Z,997.77
2018-03-07T16:04:03.998Z,997.78
2018-03-07T16:05:31.039Z,997.82
2018-03-07T16:06:58.141Z,997.83
2018-03-07T16:08:25.317Z,997.83
2018-03-07T16:09:52.591Z,997.84
2018-03-07T16:11:19.760Z,997.85
2018-03-07T16:12:46.969Z,997.84
2018-03-07T16:14:14.167Z,997.85
2018-03-07T16:15:41.192Z,997.87
2018-03-07T16:17:08.534Z,997.87
2018-03-07T16:18:35.559Z,997.88
2018-03-07T16:20:02.814Z,997.91
2018-03-07T16:21:29.912Z,997.92
2018-03-07T16:22:56.742Z,997.94
2018-03-07T16:24:24.052Z,997.95
2018-03-07T16:25:51.200Z,997.96
2018-03-07T16:27:18.386Z,997.93
2018-03-07T16:28:45.493Z,997.93
2018-03-07T16:30:12.752Z,997.95
2018-03-07T16:31:39.853Z,997.95
2018-03-07T16:33:06.947Z,997.99
2018-03-07T16:34:34.102Z,998.00
2018-03-07T16:36:01.377Z,997.98
2018-03-07T16:37:28.432Z,997.99
2018-03-07T16:38:55.622Z,998.02
2018-03-07T16:40:23.054Z,998.02
2018-03-07T16:41:50.073Z,998.05
2018-03-07T16:43:17.299Z,998.07
2018-03-07T16:44:44.354Z,998.07
2018-03-07T16:46:11.561Z,998.09
2018-03-07T16:47:38.608Z,998.12
2018-03-07T16:49:05.745Z,998.13
2018-03-07T16:50:32.743Z,998.15
2018-03-07T16:52:00.084Z,998.14
2018-03-07T16:53:35.194Z,998.16
2018-03-07T16:54:54.335Z,998.18
2018-03-07T16:56:21.778Z,998.19
2018-03-07T16:57:48.740Z,998.20
2018-03-07T16:59:15.837Z,998.21
2018-03-07T17:00:42.969Z,998.23
2018-03-07T17:02:10.217Z,998.24
2018-03-07T17:03:38.314Z,998.26
2018-03-07T17:05:04.386Z,998.28
2018-03-07T17:06:31.676Z,998.29
2018-03-07T17:07:59.058Z,998.29
2018-03-07T17:09:26.043Z,998.32
2018-03-07T17:10:53.339Z,998.33
2018-03-07T17:12:20.567Z,998.34
2018-03-07T17:13:47.758Z,998.35
2018-03-07T17:15:14.931Z,998.38
2018-03-07T17:16:42.066Z,998.38
2018-03-07T17:18:09.316Z,998.37
2018-03-07T17:19:36.361Z,998.39
2018-03-07T17:21:03.696Z,998.41
2018-03-07T17:22:30.949Z,998.43
2018-03-07T17:23:57.978Z,998.45
2018-03-07T17:25:25.242Z,998.47
2018-03-07T17:26:52.369Z,998.48
2018-03-07T17:28:19.536Z,998.50
2018-03-07T17:29:46.718Z,998.50
2018-03-07T17:31:13.836Z,998.51
2018-03-07T17:32:41.020Z,998.52
2018-03-07T17:34:08.166Z,998.54
2018-03-07T17:35:35.291Z,998.56
2018-03-07T17:37:02.327Z,998.57
2018-03-07T17:38:29.652Z,998.58
2018-03-07T17:39:56.838Z,998.60
2018-03-07T17:41:24.116Z,998.61
2018-03-07T17:42:51.207Z,998.61
2018-03-07T17:44:18.350Z,998.63
2018-03-07T17:45:45.361Z,998.64
2018-03-07T17:47:12.560Z,998.64
2018-03-07T17:48:39.635Z,998.65
2018-03-07T17:50:06.750Z,998.65
2018-03-07T17:51:34.036Z,998.67
2018-03-07T17:53:01.066Z,998.67
2018-03-07T17:54:28.287Z,998.67
2018-03-07T17:55:55.537Z,998.68
2018-03-07T17:57:22.843Z,998.69
2018-03-07T17:58:49.828Z,998.69
2018-03-07T18:00:17.095Z,998.68
2018-03-07T18:01:44.131Z,998.67
2018-03-07T18:03:11.207Z,998.67
2018-03-07T18:04:38.336Z,998.67
2018-03-07T18:06:04.986Z,998.68
2018-03-07T18:07:32.317Z,998.70
2018-03-07T18:08:59.497Z,998.67
2018-03-07T18:10:26.741Z,998.70